createdAt,value
2022-08-24T00:01:20.998Z,12.44
2022-08-24T00:04:27.135Z,12.41
2022-08-24T00:07:34.560Z,12.37
2022-08-24T00:10:40.176Z,12.33
2022-08-24T00:13:45.767Z,12.30
2022-08-24T00:16:53.958Z,12.22
2022-08-24T00:20:00.350Z,12.17
2022-08-24T00:23:05.809Z,12.12
2022-08-24T00:26:11.248Z,12.10
2022-08-24T00:29:16.801Z,12.09
2022-08-24T00:32:30.339Z,12.07
2022-08-24T00:35:35.606Z,12.03
2022-08-24T00:38:51.904Z,11.97
2022-08-24T00:41:57.753Z,11.93
2022-08-24T00:45:04.635Z,11.92
2022-08-24T00:48:10.403Z,11.88
2022-08-24T00:51:17.027Z,11.87
2022-08-24T00:54:23.193Z,11.85
2022-08-24T00:57:28.678Z,11.82
2022-08-24T01:00:34.523Z,11.77
2022-08-24T01:03:47.005Z,11.74
2022-08-24T01:06:52.884Z,11.71
2022-08-24T01:09:58.681Z,11.70
2022-08-24T01:13:05.956Z,11.64
2022-08-24T01:16:11.425Z,11.62
2022-08-24T01:19:22.712Z,11.60
2022-08-24T01:22:28.581Z,11.59
2022-08-24T01:25:49.264Z,11.55
2022-08-24T01:28:57.511Z,11.51
2022-08-24T01:32:03.092Z,11.48
2022-08-24T01:35:09.190Z,11.45
2022-08-24T01:38:14.796Z,11.40
2022-08-24T01:41:20.271Z,11.38
2022-08-24T01:44:26.092Z,11.33
2022-08-24T01:47:32.251Z,11.30
2022-08-24T01:50:43.902Z,11.28
2022-08-24T01:53:49.779Z,11.24
2022-08-24T01:57:09.292Z,11.19
2022-08-24T02:00:15.669Z,11.14
2022-08-24T02:03:25.470Z,11.10
2022-08-24T02:06:42.665Z,11.06
2022-08-24T02:09:48.614Z,11.05
2022-08-24T02:13:09.839Z,11.02
2022-08-24T02:16:15.380Z,11.02
2022-08-24T02:19:21.097Z,11.00
2022-08-24T02:22:27.977Z,11.01
2022-08-24T02:25:34.749Z,10.97
2022-08-24T02:28:40.052Z,10.95
2022-08-24T02:31:46.016Z,10.90
2022-08-24T02:34:51.519Z,10.87
2022-08-24T02:38:12.920Z,10.83
2022-08-24T02:41:18.596Z,10.80
2022-08-24T02:44:24.532Z,10.77
2022-08-24T02:47:38.257Z,10.74
2022-08-24T02:50:44.867Z,10.71
2022-08-24T02:53:50.474Z,10.69
2022-08-24T02:56:57.046Z,10.65
2022-08-24T03:00:05.959Z,10.64
2022-08-24T03:03:15.114Z,10.61
2022-08-24T03:06:20.660Z,10.61
2022-08-24T03:09:28.813Z,10.60
2022-08-24T03:12:34.867Z,10.58
2022-08-24T03:15:40.557Z,10.56
2022-08-24T03:18:46.448Z,10.57
2022-08-24T03:21:53.801Z,10.55
2022-08-24T03:25:06.164Z,10.56
2022-08-24T03:28:12.035Z,10.56
2022-08-24T03:31:55.678Z,10.58
2022-08-24T03:34:44.648Z,10.59
2022-08-24T03:37:50.665Z,10.60
2022-08-24T03:40:56.264Z,10.60
2022-08-24T03:44:01.749Z,10.62
2022-08-24T03:47:08.581Z,10.61
2022-08-24T03:50:13.895Z,10.65
2022-08-24T03:53:19.682Z,10.69
2022-08-24T03:56:24.969Z,10.74
2022-08-24T03:59:31.201Z,10.81
2022-08-24T04:02:36.763Z,10.88
2022-08-24T04:05:42.461Z,10.96
2022-08-24T04:08:54.524Z,11.01
2022-08-24T04:12:00.423Z,11.07
2022-08-24T04:15:05.809Z,11.17
2022-08-24T04:18:10.972Z,11.23
2022-08-24T04:21:16.487Z,11.31
2022-08-24T04:24:22.084Z,11.40
2022-08-24T04:27:27.652Z,11.51
2022-08-24T04:30:33.522Z,11.58
2022-08-24T04:33:39.585Z,11.64
2022-08-24T04:36:45.518Z,11.69
2022-08-24T04:39:51.014Z,11.78
2022-08-24T04:42:59.231Z,11.86
2022-08-24T04:46:05.032Z,11.84
2022-08-24T04:49:11.557Z,11.84
2022-08-24T04:52:17.193Z,11.90
2022-08-24T04:55:22.635Z,11.99
2022-08-24T04:58:28.341Z,12.10
2022-08-24T05:01:33.950Z,12.24
2022-08-24T05:04:40.000Z,12.40
2022-08-24T05:07:46.067Z,12.55
2022-08-24T05:10:51.973Z,12.71
2022-08-24T05:13:57.583Z,12.89
2022-08-24T05:17:03.368Z,13.11
2022-08-24T05:20:09.293Z,13.27
2022-08-24T05:23:15.211Z,13.38
2022-08-24T05:26:21.023Z,13.43
2022-08-24T05:29:26.556Z,13.45
2022-08-24T05:32:32.493Z,13.52
2022-08-24T05:35:38.415Z,13.55
2022-08-24T05:38:43.745Z,13.62
2022-08-24T05:41:49.828Z,13.69
2022-08-24T05:44:55.631Z,13.82
2022-08-24T05:48:00.909Z,13.95
2022-08-24T05:51:06.816Z,14.17
2022-08-24T05:54:13.822Z,14.38
2022-08-24T05:57:19.446Z,14.64
2022-08-24T06:00:25.786Z,14.76
2022-08-24T06:03:31.700Z,14.96
2022-08-24T06:06:37.217Z,15.28
2022-08-24T06:09:43.731Z,15.63
2022-08-24T06:12:49.006Z,15.95
2022-08-24T06:16:20.770Z,16.26
2022-08-24T06:19:27.193Z,16.54
2022-08-24T06:22:32.915Z,16.72
2022-08-24T06:25:56.379Z,16.75
2022-08-24T06:29:05.451Z,16.74
2022-08-24T06:32:11.524Z,16.79
2022-08-24T06:35:19.677Z,16.89
2022-08-24T06:38:29.038Z,17.12
2022-08-24T06:41:34.685Z,17.38
2022-08-24T06:44:40.665Z,17.62
2022-08-24T06:47:47.516Z,17.83
2022-08-24T06:50:53.499Z,18.07
2022-08-24T06:54:06.096Z,18.21
2022-08-24T06:57:11.893Z,18.47
2022-08-24T07:00:17.941Z,18.74
2022-08-24T07:03:23.821Z,19.02
2022-08-24T07:06:30.560Z,19.22
2022-08-24T07:09:36.420Z,19.22
2022-08-24T07:12:41.990Z,19.22
2022-08-24T07:15:47.714Z,19.32
2022-08-24T07:18:54.095Z,19.34
2022-08-24T07:21:59.525Z,19.40
2022-08-24T07:25:05.550Z,19.48
2022-08-24T07:28:11.356Z,19.50
2022-08-24T07:31:18.861Z,19.52
2022-08-24T07:34:27.811Z,19.55
2022-08-24T07:37:41.070Z,19.62
2022-08-24T07:41:09.466Z,19.75
2022-08-24T07:44:14.346Z,19.88
2022-08-24T07:47:38.800Z,19.92
2022-08-24T07:50:45.375Z,19.99
2022-08-24T07:53:53.824Z,19.98
2022-08-24T07:56:59.873Z,20.11
2022-08-24T08:00:07.000Z,20.31
2022-08-24T08:03:12.877Z,20.45
2022-08-24T08:06:19.234Z,20.57
2022-08-24T08:09:25.018Z,20.61
2022-08-24T08:12:30.738Z,20.67
2022-08-24T08:15:36.485Z,20.76
2022-08-24T08:18:43.443Z,20.95
2022-08-24T08:22:07.152Z,21.21
2022-08-24T08:25:13.168Z,21.53
2022-08-24T08:28:26.008Z,21.71
2022-08-24T08:31:38.931Z,21.85
2022-08-24T08:34:45.685Z,22.08
2022-08-24T08:37:51.048Z,22.29
2022-08-24T08:40:58.082Z,22.36
2022-08-24T08:44:03.792Z,22.41
2022-08-24T08:47:09.590Z,22.55
2022-08-24T08:50:15.309Z,22.76
2022-08-24T08:53:21.163Z,22.79
2022-08-24T08:56:26.780Z,22.76
2022-08-24T08:59:32.971Z,22.72
2022-08-24T09:03:05.294Z,22.80
2022-08-24T09:06:10.792Z,23.02
2022-08-24T09:09:16.398Z,23.12
2022-08-24T09:12:21.998Z,23.19
2022-08-24T09:15:28.440Z,23.24
2022-08-24T09:18:33.936Z,23.32
2022-08-24T09:21:39.692Z,23.38
2022-08-24T09:24:45.502Z,23.37
2022-08-24T09:27:52.270Z,23.41
2022-08-24T09:30:58.830Z,23.45
2022-08-24T09:34:06.156Z,23.57
2022-08-24T09:37:18.202Z,23.56
2022-08-24T09:40:24.087Z,23.63
2022-08-24T09:43:30.159Z,23.62
2022-08-24T09:46:36.647Z,23.69
2022-08-24T09:49:43.347Z,23.78
2022-08-24T09:52:49.331Z,23.88
2022-08-24T09:55:54.792Z,24.03
2022-08-24T09:59:00.652Z,24.20
2022-08-24T10:02:06.556Z,24.31
2022-08-24T10:05:12.437Z,24.35
2022-08-24T10:08:34.712Z,24.30
2022-08-24T10:11:40.519Z,24.34
2022-08-24T10:14:46.199Z,24.19
2022-08-24T10:17:53.416Z,24.14
2022-08-24T10:20:58.757Z,24.10
2022-08-24T10:24:06.357Z,24.11
2022-08-24T10:27:11.919Z,24.20
2022-08-24T10:30:23.569Z,24.21
2022-08-24T10:33:33.828Z,24.26
2022-08-24T10:36:39.319Z,24.27
2022-08-24T10:39:43.919Z,24.18
2022-08-24T10:43:10.954Z,24.17
2022-08-24T10:46:16.439Z,24.23
2022-08-24T10:49:21.913Z,24.25
2022-08-24T10:52:28.141Z,24.25
2022-08-24T10:55:33.641Z,24.23
2022-08-24T10:58:39.450Z,24.16
2022-08-24T11:01:44.865Z,24.24
2022-08-24T11:04:50.925Z,24.37
2022-08-24T11:07:56.984Z,24.36
2022-08-24T11:11:03.655Z,24.49
2022-08-24T11:14:09.519Z,24.46
2022-08-24T11:17:15.287Z,24.42
2022-08-24T11:20:20.708Z,24.43
2022-08-24T11:23:31.039Z,24.46
2022-08-24T11:26:37.109Z,24.46
2022-08-24T11:29:42.829Z,24.64
2022-08-24T11:32:49.288Z,24.68
2022-08-24T11:35:54.657Z,24.77
2022-08-24T11:39:00.093Z,24.90
2022-08-24T11:42:05.759Z,24.81
2022-08-24T11:45:11.354Z,24.80
2022-08-24T11:48:17.151Z,24.73
2022-08-24T11:51:22.848Z,24.85
2022-08-24T11:54:28.028Z,24.96
2022-08-24T11:57:35.576Z,25.03
2022-08-24T12:00:42.415Z,25.02
2022-08-24T12:03:52.323Z,25.06
2022-08-24T12:06:59.435Z,25.06
2022-08-24T12:10:04.789Z,25.17
2022-08-24T12:13:30.665Z,25.13
2022-08-24T12:16:36.093Z,25.08
2022-08-24T12:19:43.366Z,25.08
2022-08-24T12:22:51.816Z,24.84
2022-08-24T12:26:04.510Z,24.91
2022-08-24T12:29:10.394Z,24.90
2022-08-24T12:32:15.927Z,24.91
2022-08-24T12:35:21.408Z,24.93
2022-08-24T12:38:27.058Z,25.04
2022-08-24T12:41:32.435Z,25.09
2022-08-24T12:44:38.775Z,25.09
2022-08-24T12:47:45.692Z,25.19
2022-08-24T12:50:51.653Z,25.18
2022-08-24T12:53:57.470Z,25.17
2022-08-24T12:57:03.574Z,25.17
2022-08-24T13:00:12.998Z,25.12
2022-08-24T13:03:22.168Z,25.16
2022-08-24T13:06:27.874Z,25.18
2022-08-24T13:09:50.395Z,25.33
2022-08-24T13:12:56.970Z,25.33
2022-08-24T13:16:05.705Z,25.37
2022-08-24T13:19:12.427Z,25.46
2022-08-24T13:22:18.408Z,25.49
2022-08-24T13:25:27.184Z,25.62
2022-08-24T13:28:33.179Z,25.68
2022-08-24T13:31:54.414Z,25.75
2022-08-24T13:35:00.833Z,25.80
2022-08-24T13:38:06.626Z,25.84
2022-08-24T13:41:12.395Z,25.89
2022-08-24T13:44:17.907Z,25.90
2022-08-24T13:47:23.755Z,25.95
2022-08-24T13:50:29.310Z,26.01
2022-08-24T13:53:42.817Z,26.06
2022-08-24T13:56:49.385Z,26.11
2022-08-24T13:59:55.979Z,26.17
2022-08-24T14:03:01.456Z,26.25
2022-08-24T14:06:06.973Z,26.25
2022-08-24T14:09:12.720Z,26.26
2022-08-24T14:12:18.468Z,26.25
2022-08-24T14:15:24.275Z,26.20
2022-08-24T14:18:30.092Z,26.23
2022-08-24T14:21:35.783Z,26.22
2022-08-24T14:24:45.902Z,26.05
2022-08-24T14:27:51.801Z,25.89
2022-08-24T14:30:57.854Z,25.80
2022-08-24T14:34:03.561Z,25.75
2022-08-24T14:37:09.753Z,25.76
2022-08-24T14:40:17.401Z,25.77
2022-08-24T14:43:30.105Z,25.83
2022-08-24T14:46:36.570Z,25.90
2022-08-24T14:49:43.578Z,25.90
2022-08-24T14:52:49.311Z,25.96
2022-08-24T14:55:56.952Z,26.05
2022-08-24T14:59:06.577Z,26.13
2022-08-24T15:02:16.369Z,26.15
2022-08-24T15:05:25.598Z,26.02
2022-08-24T15:08:32.241Z,26.04
2022-08-24T15:11:37.932Z,26.08
2022-08-24T15:14:43.710Z,26.14
2022-08-24T15:17:49.268Z,26.18
2022-08-24T15:20:54.689Z,26.22
2022-08-24T15:24:00.452Z,26.21
2022-08-24T15:27:05.856Z,26.17
2022-08-24T15:30:11.693Z,26.07
2022-08-24T15:33:19.484Z,26.07
2022-08-24T15:39:45.131Z,26.52
2022-08-24T15:42:51.431Z,27.05
2022-08-24T15:45:56.893Z,27.53
2022-08-24T15:49:02.538Z,28.06
2022-08-24T15:52:08.414Z,28.71
2022-08-24T15:55:14.190Z,29.46
2022-08-24T15:58:20.060Z,30.11
2022-08-24T16:01:46.648Z,30.80
2022-08-24T16:04:52.622Z,31.64
2022-08-24T16:07:58.762Z,32.47
2022-08-24T16:11:05.182Z,32.88
2022-08-24T16:14:10.981Z,33.18
2022-08-24T16:17:19.069Z,33.59
2022-08-24T16:20:26.466Z,33.94
2022-08-24T16:23:35.261Z,34.18
2022-08-24T16:26:41.062Z,34.42
2022-08-24T16:29:46.977Z,34.54
2022-08-24T16:32:55.962Z,34.50
2022-08-24T16:36:01.439Z,34.26
2022-08-24T16:39:09.207Z,33.99
2022-08-24T16:42:15.263Z,33.92
2022-08-24T16:45:20.781Z,33.82
2022-08-24T16:48:26.566Z,33.70
2022-08-24T16:51:31.871Z,33.48
2022-08-24T16:54:43.668Z,33.29
2022-08-24T16:57:49.069Z,33.00
2022-08-24T17:00:54.389Z,32.96
2022-08-24T17:04:12.526Z,32.80
2022-08-24T17:07:18.256Z,32.52
2022-08-24T17:10:24.346Z,32.50
2022-08-24T17:16:56.187Z,32.30
2022-08-24T17:20:09.635Z,32.13
2022-08-24T17:23:15.498Z,31.82
2022-08-24T17:26:24.340Z,31.52
2022-08-24T17:29:29.759Z,30.82
2022-08-24T17:32:35.194Z,29.70
2022-08-24T17:35:43.810Z,28.84
2022-08-24T17:38:54.463Z,28.09
2022-08-24T17:42:01.637Z,27.52
2022-08-24T17:45:07.441Z,27.26
2022-08-24T17:48:13.419Z,27.14
2022-08-24T17:51:19.463Z,27.08
2022-08-24T17:54:26.529Z,27.00
2022-08-24T17:57:35.530Z,26.72
2022-08-24T18:00:41.362Z,26.17
2022-08-24T18:03:47.416Z,25.67
2022-08-24T18:06:52.865Z,25.08
2022-08-24T18:10:00.369Z,24.59
2022-08-24T18:13:09.287Z,24.17
2022-08-24T18:16:15.715Z,23.77
2022-08-24T18:19:21.619Z,23.41
2022-08-24T18:22:30.757Z,23.13
2022-08-24T18:25:36.185Z,22.83
2022-08-24T18:29:04.854Z,22.60
2022-08-24T18:32:11.570Z,22.32
2022-08-24T18:35:17.894Z,22.12
2022-08-24T18:38:26.232Z,21.93
2022-08-24T18:41:32.608Z,21.74
2022-08-24T18:44:40.696Z,21.55
2022-08-24T18:47:53.268Z,21.35
2022-08-24T18:50:59.328Z,21.20
2022-08-24T18:54:05.745Z,21.05
2022-08-24T18:57:11.554Z,20.90
2022-08-24T19:00:23.982Z,20.87
2022-08-24T19:03:29.482Z,20.85
2022-08-24T19:06:35.496Z,20.83
2022-08-24T19:09:41.336Z,20.79
2022-08-24T19:12:47.145Z,20.75
2022-08-24T19:15:56.047Z,20.65
2022-08-24T19:19:01.942Z,20.55
2022-08-24T19:22:09.679Z,20.44
2022-08-24T19:25:15.067Z,20.34
2022-08-24T19:28:20.347Z,20.28
2022-08-24T19:31:26.613Z,20.18
2022-08-24T19:34:33.580Z,20.09
2022-08-24T19:37:39.394Z,20.02
2022-08-24T19:40:48.049Z,20.00
2022-08-24T19:44:12.569Z,19.92
2022-08-24T19:47:43.877Z,19.81
2022-08-24T19:50:49.459Z,19.67
2022-08-24T19:53:55.514Z,19.53
2022-08-24T19:57:01.134Z,19.27
2022-08-24T20:00:07.966Z,19.09
2022-08-24T20:03:14.273Z,18.91
2022-08-24T20:06:20.605Z,18.80
2022-08-24T20:09:26.228Z,18.72
2022-08-24T20:12:32.337Z,18.64
2022-08-24T20:15:38.537Z,18.57
2022-08-24T20:18:46.871Z,18.49
2022-08-24T20:21:52.290Z,18.39
2022-08-24T20:24:57.862Z,18.30
2022-08-24T20:28:27.565Z,18.23
2022-08-24T20:31:29.943Z,18.12
2022-08-24T20:34:43.329Z,18.03
2022-08-24T20:37:48.739Z,17.93
2022-08-24T20:41:05.881Z,17.84
2022-08-24T20:44:19.769Z,17.74
2022-08-24T20:47:28.131Z,17.69
2022-08-24T20:50:33.783Z,17.61
2022-08-24T20:53:39.624Z,17.55
2022-08-24T20:56:51.246Z,17.46
2022-08-24T20:59:57.040Z,17.39
2022-08-24T21:03:03.034Z,17.32
2022-08-24T21:06:08.812Z,17.26
2022-08-24T21:09:14.705Z,17.18
2022-08-24T21:12:20.903Z,17.10
2022-08-24T21:15:26.642Z,17.05
2022-08-24T21:18:32.379Z,16.99
2022-08-24T21:21:40.662Z,16.94
2022-08-24T21:24:47.711Z,16.87
2022-08-24T21:28:05.772Z,16.79
2022-08-24T21:31:11.491Z,16.70
2022-08-24T21:34:34.809Z,16.63
2022-08-24T21:37:40.315Z,16.57
2022-08-24T21:40:45.953Z,16.48
2022-08-24T21:43:57.865Z,16.44
2022-08-24T21:47:34.256Z,16.39
2022-08-24T21:50:36.782Z,16.34
2022-08-24T21:53:42.801Z,16.27
2022-08-24T21:56:48.408Z,16.25
2022-08-24T21:59:54.062Z,16.19
2022-08-24T22:02:59.857Z,16.10
2022-08-24T22:06:08.047Z,16.03
2022-08-24T22:09:13.818Z,15.95
2022-08-24T22:12:19.745Z,15.91
2022-08-24T22:15:28.594Z,15.82
2022-08-24T22:18:34.107Z,15.76
2022-08-24T22:21:39.498Z,15.70
2022-08-24T22:24:45.233Z,15.64
2022-08-24T22:27:51.268Z,15.58
2022-08-24T22:30:56.884Z,15.54
2022-08-24T22:34:02.626Z,15.50
2022-08-24T22:37:28.980Z,15.46
2022-08-24T22:40:34.411Z,15.37
2022-08-24T22:43:57.867Z,15.29
2022-08-24T22:50:39.579Z,15.04
2022-08-24T22:53:48.977Z,14.95
2022-08-24T22:56:54.642Z,14.86
2022-08-24T23:00:00.262Z,14.78
2022-08-24T23:03:06.123Z,14.74
2022-08-24T23:06:11.992Z,14.68
2022-08-24T23:09:20.053Z,14.62
2022-08-24T23:12:27.588Z,14.58
2022-08-24T23:15:32.898Z,14.52
2022-08-24T23:18:57.381Z,14.49
2022-08-24T23:22:02.718Z,14.45
2022-08-24T23:25:08.638Z,14.40
2022-08-24T23:28:17.409Z,14.36
2022-08-24T23:31:26.549Z,14.29
2022-08-24T23:34:32.246Z,14.24
2022-08-24T23:37:37.863Z,14.19
2022-08-24T23:40:46.829Z,14.14
2022-08-24T23:43:54.049Z,14.08
2022-08-24T23:46:59.490Z,14.00
2022-08-24T23:50:10.679Z,13.95
2022-08-24T23:53:16.904Z,13.92
2022-08-24T23:56:31.752Z,13.85
2022-08-24T23:59:37.572Z,13.82
